createdAt,value
2022-12-29T00:00:19.094Z,36
2022-12-29T00:01:26.249Z,28
2022-12-29T00:02:33.319Z,36
2022-12-29T00:03:40.493Z,27
2022-12-29T00:04:47.535Z,29
2022-12-29T00:05:54.699Z,38
2022-12-29T00:07:02.138Z,33
2022-12-29T00:08:09.493Z,39
2022-12-29T00:09:16.372Z,30
2022-12-29T00:10:23.123Z,37
2022-12-29T00:11:30.448Z,35
2022-12-29T00:12:37.353Z,32
2022-12-29T00:13:49.731Z,34
2022-12-29T00:15:01.992Z,38
2022-12-29T00:16:14.136Z,34
2022-12-29T00:17:21.124Z,36
2022-12-29T00:18:28.328Z,38
2022-12-29T00:19:35.449Z,41
2022-12-29T00:20:47.772Z,46
2022-12-29T00:22:00.044Z,42
2022-12-29T00:23:14.592Z,39
2022-12-29T00:24:26.871Z,35
2022-12-29T00:25:39.229Z,27
2022-12-29T00:26:51.437Z,32
2022-12-29T00:28:07.393Z,26
2022-12-29T00:29:19.257Z,27
2022-12-29T00:30:31.468Z,31
2022-12-29T00:31:43.878Z,27
2022-12-29T00:32:56.149Z,25
2022-12-29T00:34:16.212Z,30
2022-12-29T00:35:28.452Z,32
2022-12-29T00:36:40.940Z,29
2022-12-29T00:37:47.901Z,28
2022-12-29T00:39:00.295Z,32
2022-12-29T00:40:12.714Z,37
2022-12-29T00:41:24.921Z,27
2022-12-29T00:42:37.194Z,31
2022-12-29T00:43:49.571Z,26
2022-12-29T00:45:01.899Z,25
2022-12-29T00:46:11.785Z,30
2022-12-29T00:47:16.450Z,27
2022-12-29T00:48:23.532Z,26
2022-12-29T00:49:35.791Z,30
2022-12-29T00:50:43.006Z,25
2022-12-29T00:51:50.164Z,34
2022-12-29T00:52:57.332Z,36
2022-12-29T00:54:04.630Z,26
2022-12-29T00:55:11.476Z,25
2022-12-29T00:56:18.561Z,32
2022-12-29T00:57:25.748Z,29
2022-12-29T00:58:32.856Z,39
2022-12-29T00:59:40.043Z,38
2022-12-29T01:00:47.300Z,31
2022-12-29T01:01:54.539Z,31
2022-12-29T01:03:01.772Z,36
2022-12-29T01:04:08.892Z,35
2022-12-29T01:05:16.027Z,38
2022-12-29T01:06:23.181Z,35
2022-12-29T01:07:30.373Z,28
2022-12-29T01:08:37.683Z,41
2022-12-29T01:09:44.669Z,40
2022-12-29T01:10:56.961Z,30
2022-12-29T01:12:12.521Z,33
2022-12-29T01:13:19.907Z,37
2022-12-29T01:14:26.846Z,34
2022-12-29T01:15:33.995Z,34
2022-12-29T01:16:41.241Z,41
2022-12-29T01:17:48.319Z,39
2022-12-29T01:18:55.532Z,42
2022-12-29T01:20:02.605Z,48
2022-12-29T01:21:10.332Z,48
2022-12-29T01:22:17.264Z,54
2022-12-29T01:23:24.380Z,64
2022-12-29T01:24:32.308Z,66
2022-12-29T01:25:39.165Z,69
2022-12-29T01:26:46.390Z,62
2022-12-29T01:27:53.653Z,68
2022-12-29T01:29:00.781Z,64
2022-12-29T01:30:07.619Z,72
2022-12-29T01:31:14.813Z,74
2022-12-29T01:32:21.910Z,73
2022-12-29T01:33:29.134Z,76
2022-12-29T01:34:36.417Z,67
2022-12-29T01:35:43.525Z,77
2022-12-29T01:36:50.539Z,74
2022-12-29T01:37:57.682Z,81
2022-12-29T01:39:04.849Z,76
2022-12-29T01:40:11.778Z,68
2022-12-29T01:41:18.928Z,75
2022-12-29T01:42:26.042Z,73
2022-12-29T01:43:32.749Z,60
2022-12-29T01:44:50.128Z,76
2022-12-29T01:46:00.407Z,76
2022-12-29T01:47:07.758Z,86
2022-12-29T01:48:15.018Z,83
2022-12-29T01:49:21.969Z,89
2022-12-29T01:50:29.159Z,93
2022-12-29T01:51:44.032Z,93
2022-12-29T01:52:56.375Z,98
2022-12-29T01:54:09.246Z,102
2022-12-29T01:55:16.569Z,107
2022-12-29T01:56:23.617Z,108
2022-12-29T01:57:30.768Z,106
2022-12-29T01:58:37.896Z,115
2022-12-29T01:59:45.061Z,118
2022-12-29T02:00:54.849Z,109
2022-12-29T02:02:02.002Z,107
2022-12-29T02:03:09.080Z,100
2022-12-29T02:04:16.191Z,106
2022-12-29T02:05:23.203Z,98
2022-12-29T02:06:38.504Z,93
2022-12-29T02:07:48.233Z,86
2022-12-29T02:08:55.447Z,82
2022-12-29T02:10:02.606Z,84
2022-12-29T02:11:09.861Z,81
2022-12-29T02:12:17.060Z,72
2022-12-29T02:13:24.231Z,79
2022-12-29T02:14:31.414Z,68
2022-12-29T02:15:38.588Z,66
2022-12-29T02:16:51.438Z,57
2022-12-29T02:18:09.060Z,58
2022-12-29T02:19:24.314Z,54
2022-12-29T02:20:41.752Z,49
2022-12-29T02:21:59.048Z,47
2022-12-29T02:23:14.120Z,45
2022-12-29T02:24:28.956Z,44
2022-12-29T02:25:46.298Z,42
2022-12-29T02:26:58.555Z,39
2022-12-29T02:28:13.690Z,39
2022-12-29T02:29:31.200Z,29
2022-12-29T02:30:43.407Z,32
2022-12-29T02:31:50.457Z,39
2022-12-29T02:32:57.558Z,44
2022-12-29T02:34:04.792Z,39
2022-12-29T02:35:11.587Z,44
2022-12-29T02:36:18.748Z,42
2022-12-29T02:37:28.492Z,47
2022-12-29T02:38:40.788Z,50
2022-12-29T02:39:58.166Z,34
2022-12-29T02:41:10.628Z,35
2022-12-29T02:42:25.413Z,29
2022-12-29T02:43:35.170Z,31
2022-12-29T02:44:47.490Z,25
2022-12-29T02:45:59.956Z,37
2022-12-29T02:47:17.326Z,34
2022-12-29T02:48:27.079Z,25
2022-12-29T02:49:36.734Z,37
2022-12-29T02:50:43.918Z,27
2022-12-29T02:51:56.166Z,25
2022-12-29T02:53:03.433Z,30
2022-12-29T02:54:10.187Z,33
2022-12-29T02:55:22.490Z,33
2022-12-29T02:56:29.669Z,31
2022-12-29T02:57:37.028Z,32
2022-12-29T02:58:43.999Z,33
2022-12-29T02:59:51.178Z,31
2022-12-29T03:01:04.499Z,30
2022-12-29T03:02:16.551Z,41
2022-12-29T03:03:33.934Z,34
2022-12-29T03:04:51.242Z,28
2022-12-29T03:06:06.054Z,48
2022-12-29T03:07:23.123Z,46
2022-12-29T03:08:35.450Z,37
2022-12-29T03:09:47.813Z,43
2022-12-29T03:10:54.832Z,43
2022-12-29T03:12:04.512Z,45
2022-12-29T03:13:22.119Z,34
2022-12-29T03:14:44.711Z,37
2022-12-29T03:15:56.922Z,30
2022-12-29T03:17:09.898Z,29
2022-12-29T03:18:17.145Z,29
2022-12-29T03:19:26.697Z,30
2022-12-29T03:20:44.242Z,26
2022-12-29T03:21:53.951Z,38
2022-12-29T03:23:06.142Z,39
2022-12-29T03:24:13.137Z,28
2022-12-29T03:25:20.137Z,30
2022-12-29T03:26:27.281Z,31
2022-12-29T03:27:34.394Z,32
2022-12-29T03:28:46.724Z,27
2022-12-29T03:29:53.852Z,38
2022-12-29T03:31:01.230Z,44
2022-12-29T03:32:08.381Z,43
2022-12-29T03:33:15.694Z,46
2022-12-29T03:34:22.664Z,44
2022-12-29T03:35:29.826Z,46
2022-12-29T03:36:36.937Z,54
2022-12-29T03:37:44.165Z,56
2022-12-29T03:39:01.765Z,61
2022-12-29T03:40:08.843Z,72
2022-12-29T03:41:15.966Z,69
2022-12-29T03:42:23.159Z,89
2022-12-29T03:43:30.341Z,79
2022-12-29T03:44:37.635Z,87
2022-12-29T03:45:44.806Z,85
2022-12-29T03:46:51.799Z,92
2022-12-29T03:47:58.969Z,85
2022-12-29T03:49:06.113Z,94
2022-12-29T03:50:12.954Z,93
2022-12-29T03:51:20.207Z,93
2022-12-29T03:52:27.303Z,100
2022-12-29T03:53:34.417Z,99
2022-12-29T03:54:44.663Z,94
2022-12-29T03:55:51.841Z,108
2022-12-29T03:56:58.964Z,101
2022-12-29T03:58:06.079Z,95
2022-12-29T03:59:13.191Z,94
2022-12-29T04:00:20.173Z,97
2022-12-29T04:01:27.448Z,88
2022-12-29T04:02:34.626Z,91
2022-12-29T04:03:41.731Z,91
2022-12-29T04:04:48.825Z,88
2022-12-29T04:05:56.003Z,85
2022-12-29T04:07:03.261Z,78
2022-12-29T04:08:10.525Z,78
2022-12-29T04:09:17.643Z,76
2022-12-29T04:10:24.769Z,77
2022-12-29T04:11:33.328Z,81
2022-12-29T04:12:39.217Z,77
2022-12-29T04:13:46.356Z,69
2022-12-29T04:14:53.555Z,76
2022-12-29T04:16:00.705Z,79
2022-12-29T04:17:07.934Z,73
2022-12-29T04:18:15.117Z,63
2022-12-29T04:19:22.457Z,64
2022-12-29T04:20:29.398Z,61
2022-12-29T04:21:41.833Z,59
2022-12-29T04:22:48.895Z,70
2022-12-29T04:23:56.037Z,62
2022-12-29T04:25:03.174Z,56
2022-12-29T04:26:10.661Z,50
2022-12-29T04:27:17.730Z,57
2022-12-29T04:28:24.909Z,61
2022-12-29T04:29:32.045Z,53
2022-12-29T04:30:39.105Z,51
2022-12-29T04:31:46.398Z,55
2022-12-29T04:32:53.339Z,55
2022-12-29T04:34:00.604Z,55
2022-12-29T04:35:07.535Z,49
2022-12-29T04:36:14.596Z,49
2022-12-29T04:37:21.773Z,53
2022-12-29T04:38:28.822Z,46
2022-12-29T04:39:36.009Z,43
2022-12-29T04:40:43.253Z,38
2022-12-29T04:41:50.410Z,44
2022-12-29T04:42:57.593Z,52
2022-12-29T04:44:04.704Z,40
2022-12-29T04:45:11.518Z,45
2022-12-29T04:46:18.713Z,43
2022-12-29T04:47:25.970Z,44
2022-12-29T04:48:33.093Z,51
2022-12-29T04:49:40.206Z,43
2022-12-29T04:50:47.368Z,39
2022-12-29T04:51:54.570Z,50
2022-12-29T04:53:01.804Z,42
2022-12-29T04:54:08.597Z,42
2022-12-29T04:55:15.960Z,46
2022-12-29T04:56:22.850Z,40
2022-12-29T04:57:30.045Z,40
2022-12-29T04:58:37.261Z,40
2022-12-29T04:59:44.344Z,34
2022-12-29T05:00:51.471Z,37
2022-12-29T05:01:58.880Z,34
2022-12-29T05:03:06.044Z,46
2022-12-29T05:04:12.689Z,39
2022-12-29T05:05:19.881Z,37
2022-12-29T05:06:27.034Z,39
2022-12-29T05:07:34.203Z,33
2022-12-29T05:08:41.309Z,38
2022-12-29T05:09:48.491Z,36
2022-12-29T05:10:55.616Z,33
2022-12-29T05:12:02.715Z,36
2022-12-29T05:13:09.947Z,35
2022-12-29T05:14:16.854Z,27
2022-12-29T05:15:23.951Z,25
2022-12-29T05:16:31.166Z,35
2022-12-29T05:18:03.172Z,38
2022-12-29T05:19:10.220Z,33
2022-12-29T05:20:17.238Z,40
2022-12-29T05:21:24.356Z,38
2022-12-29T05:22:31.511Z,34
2022-12-29T05:23:38.157Z,40
2022-12-29T05:24:45.253Z,38
2022-12-29T05:25:51.946Z,42
2022-12-29T05:26:59.125Z,35
2022-12-29T05:28:06.192Z,35
2022-12-29T05:29:13.077Z,40
2022-12-29T05:30:19.777Z,36
2022-12-29T05:31:27.059Z,33
2022-12-29T05:32:34.021Z,35
2022-12-29T05:33:40.767Z,29
2022-12-29T05:34:47.807Z,28
2022-12-29T05:35:54.491Z,35
2022-12-29T05:37:01.781Z,33
2022-12-29T05:38:08.838Z,31
2022-12-29T05:39:15.694Z,32
2022-12-29T05:40:22.839Z,33
2022-12-29T05:41:29.946Z,29
2022-12-29T05:42:36.645Z,36
2022-12-29T05:43:43.871Z,30
2022-12-29T05:44:50.507Z,36
2022-12-29T05:45:57.814Z,30
2022-12-29T05:47:04.876Z,34
2022-12-29T05:48:11.734Z,26
2022-12-29T05:49:19.060Z,31
2022-12-29T05:50:26.101Z,26
2022-12-29T05:51:33.412Z,34
2022-12-29T05:52:40.295Z,30
2022-12-29T05:53:47.468Z,25
2022-12-29T05:54:54.517Z,31
2022-12-29T05:56:01.736Z,40
2022-12-29T05:57:08.711Z,40
2022-12-29T05:58:15.787Z,32
2022-12-29T05:59:22.970Z,34
2022-12-29T06:00:30.110Z,35
2022-12-29T06:01:37.413Z,40
2022-12-29T06:02:44.661Z,42
2022-12-29T06:03:51.601Z,40
2022-12-29T06:04:58.219Z,40
2022-12-29T06:06:05.307Z,33
2022-12-29T06:07:12.216Z,47
2022-12-29T06:08:19.447Z,51
2022-12-29T06:09:26.544Z,42
2022-12-29T06:10:33.657Z,47
2022-12-29T06:11:40.828Z,56
2022-12-29T06:12:47.980Z,53
2022-12-29T06:13:54.642Z,47
2022-12-29T06:15:01.826Z,53
2022-12-29T06:16:09.224Z,56
2022-12-29T06:17:16.369Z,63
2022-12-29T06:18:23.398Z,62
2022-12-29T06:19:30.571Z,56
2022-12-29T06:20:37.742Z,65
2022-12-29T06:21:44.959Z,70
2022-12-29T06:22:52.079Z,85
2022-12-29T06:23:59.158Z,82
2022-12-29T06:25:06.327Z,88
2022-12-29T06:26:13.206Z,86
2022-12-29T06:27:20.338Z,80
2022-12-29T06:28:27.688Z,90
2022-12-29T06:29:34.681Z,85
2022-12-29T06:30:41.894Z,84
2022-12-29T06:31:49.082Z,87
2022-12-29T06:32:56.225Z,87
2022-12-29T06:34:08.039Z,84
2022-12-29T06:35:10.241Z,84
2022-12-29T06:36:17.386Z,82
2022-12-29T06:37:24.494Z,92
2022-12-29T06:38:31.678Z,93
2022-12-29T06:39:38.390Z,95
2022-12-29T06:40:45.523Z,91
2022-12-29T06:41:52.152Z,99
2022-12-29T06:42:59.274Z,99
2022-12-29T06:44:06.428Z,101
2022-12-29T06:45:13.318Z,99
2022-12-29T06:46:20.200Z,105
2022-12-29T06:47:27.228Z,102
2022-12-29T06:48:34.423Z,97
2022-12-29T06:49:41.492Z,107
2022-12-29T06:50:48.126Z,104
2022-12-29T06:51:54.834Z,94
2022-12-29T06:53:02.166Z,101
2022-12-29T06:54:09.538Z,107
2022-12-29T06:55:16.485Z,100
2022-12-29T06:56:23.158Z,101
2022-12-29T06:57:30.103Z,107
2022-12-29T06:58:37.083Z,101
2022-12-29T06:59:44.106Z,99
2022-12-29T07:00:50.848Z,104
2022-12-29T07:01:58.149Z,99
2022-12-29T07:03:05.315Z,96
2022-12-29T07:04:12.027Z,101
2022-12-29T07:05:19.171Z,98
2022-12-29T07:06:26.283Z,100
2022-12-29T07:07:32.924Z,95
2022-12-29T07:08:40.131Z,101
2022-12-29T07:09:47.291Z,99
2022-12-29T07:10:54.613Z,84
2022-12-29T07:12:01.635Z,89
2022-12-29T07:13:08.459Z,94
2022-12-29T07:14:15.094Z,90
2022-12-29T07:15:22.344Z,76
2022-12-29T07:16:29.496Z,90
2022-12-29T07:17:36.871Z,95
2022-12-29T07:18:43.831Z,84
2022-12-29T07:19:50.966Z,84
2022-12-29T07:20:58.105Z,80
2022-12-29T07:22:05.247Z,83
2022-12-29T07:23:12.153Z,82
2022-12-29T07:24:19.423Z,78
2022-12-29T07:25:26.452Z,91
2022-12-29T07:26:36.385Z,91
2022-12-29T07:27:40.774Z,85
2022-12-29T07:28:47.444Z,91
2022-12-29T07:29:54.663Z,80
2022-12-29T07:31:01.888Z,78
2022-12-29T07:32:08.681Z,82
2022-12-29T07:33:15.685Z,87
2022-12-29T07:34:22.819Z,83
2022-12-29T07:35:29.561Z,79
2022-12-29T07:36:36.194Z,79
2022-12-29T07:37:43.337Z,82
2022-12-29T07:38:50.459Z,83
2022-12-29T07:39:57.598Z,80
2022-12-29T07:41:04.826Z,81
2022-12-29T07:42:11.616Z,76
2022-12-29T07:43:18.810Z,80
2022-12-29T07:44:25.928Z,76
2022-12-29T07:45:33.157Z,81
2022-12-29T07:46:54.853Z,85
2022-12-29T07:47:47.069Z,75
2022-12-29T07:48:54.102Z,78
2022-12-29T07:50:01.190Z,82
2022-12-29T07:51:08.581Z,80
2022-12-29T07:52:15.262Z,76
2022-12-29T07:53:22.421Z,79
2022-12-29T07:54:29.576Z,85
2022-12-29T07:55:36.736Z,82
2022-12-29T07:56:43.390Z,75
2022-12-29T07:57:50.065Z,72
2022-12-29T07:58:57.261Z,73
2022-12-29T08:00:04.433Z,78
2022-12-29T08:01:12.190Z,79
2022-12-29T08:02:19.054Z,84
2022-12-29T08:03:26.033Z,80
2022-12-29T08:04:33.190Z,81
2022-12-29T08:05:41.181Z,76
2022-12-29T08:06:49.172Z,77
2022-12-29T08:07:57.069Z,84
2022-12-29T08:09:12.402Z,81
2022-12-29T08:10:11.433Z,82
2022-12-29T08:11:20.111Z,84
2022-12-29T08:12:28.182Z,97
2022-12-29T08:13:35.187Z,87
2022-12-29T08:14:42.390Z,91
2022-12-29T08:15:50.553Z,90
2022-12-29T08:16:57.906Z,86
2022-12-29T08:18:05.016Z,89
2022-12-29T08:19:11.887Z,83
2022-12-29T08:20:19.054Z,85
2022-12-29T08:21:26.205Z,94
2022-12-29T08:22:34.151Z,88
2022-12-29T08:23:42.094Z,83
2022-12-29T08:24:49.588Z,78
2022-12-29T08:25:57.767Z,83
2022-12-29T08:27:13.314Z,84
2022-12-29T08:28:13.140Z,78
2022-12-29T08:29:20.074Z,77
2022-12-29T08:30:28.068Z,90
2022-12-29T08:31:35.078Z,76
2022-12-29T08:32:42.034Z,87
2022-12-29T08:33:50.053Z,83
2022-12-29T08:34:57.237Z,79
2022-12-29T08:36:06.360Z,89
2022-12-29T08:37:15.044Z,76
2022-12-29T08:38:22.178Z,78
2022-12-29T08:39:29.240Z,72
2022-12-29T08:40:36.653Z,78
2022-12-29T08:41:43.734Z,73
2022-12-29T08:42:51.041Z,72
2022-12-29T08:43:59.206Z,84
2022-12-29T08:45:06.439Z,77
2022-12-29T08:46:13.626Z,78
2022-12-29T08:47:20.657Z,79
2022-12-29T08:48:28.773Z,87
2022-12-29T08:49:37.027Z,80
2022-12-29T08:50:45.107Z,77
2022-12-29T08:51:52.446Z,86
2022-12-29T08:52:59.445Z,88
2022-12-29T08:54:07.890Z,82
2022-12-29T08:55:15.521Z,83
2022-12-29T08:56:23.813Z,83
2022-12-29T08:57:31.289Z,83
2022-12-29T08:58:38.794Z,90
2022-12-29T08:59:45.637Z,85
2022-12-29T09:00:52.967Z,84
2022-12-29T09:02:00.490Z,85
2022-12-29T09:03:07.592Z,87
2022-12-29T09:04:16.370Z,93
2022-12-29T09:05:22.425Z,82
2022-12-29T09:06:31.612Z,88
2022-12-29T09:07:36.846Z,90
2022-12-29T09:08:43.761Z,94
2022-12-29T09:09:51.915Z,97
2022-12-29T09:10:59.013Z,93
2022-12-29T09:12:13.028Z,88
2022-12-29T09:13:20.499Z,90
2022-12-29T09:14:27.500Z,87
2022-12-29T09:15:34.602Z,90
2022-12-29T09:16:41.956Z,77
2022-12-29T09:17:54.296Z,87
2022-12-29T09:19:02.934Z,82
2022-12-29T09:20:09.666Z,81
2022-12-29T09:21:16.996Z,79
2022-12-29T09:22:24.019Z,81
2022-12-29T09:23:31.061Z,73
2022-12-29T09:24:38.709Z,74
2022-12-29T09:25:45.916Z,73
2022-12-29T09:26:53.068Z,73
2022-12-29T09:28:00.165Z,82
2022-12-29T09:29:08.152Z,73
2022-12-29T09:30:15.470Z,81
2022-12-29T09:31:22.921Z,80
2022-12-29T09:32:33.506Z,81
2022-12-29T09:33:36.853Z,72
2022-12-29T09:34:43.779Z,75
2022-12-29T09:35:50.898Z,71
2022-12-29T09:36:58.241Z,76
2022-12-29T09:38:05.542Z,74
2022-12-29T09:39:12.428Z,61
2022-12-29T09:40:20.711Z,63
2022-12-29T09:41:32.693Z,68
2022-12-29T09:42:45.085Z,55
2022-12-29T09:43:57.602Z,60
2022-12-29T09:45:08.122Z,62
2022-12-29T09:46:15.444Z,65
2022-12-29T09:47:30.922Z,55
2022-12-29T09:48:38.717Z,51
2022-12-29T09:49:45.514Z,50
2022-12-29T09:50:57.947Z,48
2022-12-29T09:52:06.830Z,59
2022-12-29T09:53:24.275Z,54
2022-12-29T09:54:37.354Z,57
2022-12-29T09:55:56.461Z,48
2022-12-29T09:57:03.544Z,63
2022-12-29T09:58:13.557Z,60
2022-12-29T09:59:30.851Z,64
2022-12-29T10:00:43.810Z,63
2022-12-29T10:02:00.713Z,63
2022-12-29T10:03:12.626Z,80
2022-12-29T10:04:19.907Z,76
2022-12-29T10:05:26.750Z,71
2022-12-29T10:06:56.385Z,78
2022-12-29T10:07:53.106Z,76
2022-12-29T10:08:59.795Z,71
2022-12-29T10:10:12.786Z,68
2022-12-29T10:11:28.668Z,75
2022-12-29T10:12:41.293Z,72
2022-12-29T10:13:56.326Z,68
2022-12-29T10:15:13.558Z,67
2022-12-29T10:16:24.256Z,69
2022-12-29T10:17:33.337Z,69
2022-12-29T10:18:48.359Z,40
2022-12-29T10:20:05.667Z,51
2022-12-29T10:21:22.847Z,55
2022-12-29T10:22:37.736Z,30
2022-12-29T10:23:55.759Z,35
2022-12-29T10:25:02.541Z,37
2022-12-29T10:26:17.731Z,33
2022-12-29T10:27:25.203Z,25
2022-12-29T10:28:32.305Z,28
2022-12-29T10:29:45.696Z,46
2022-12-29T10:30:52.923Z,32
2022-12-29T10:32:00.467Z,31
2022-12-29T10:33:07.657Z,34
2022-12-29T10:34:14.679Z,37
2022-12-29T10:35:26.971Z,45
2022-12-29T10:36:40.233Z,30
2022-12-29T10:37:47.512Z,29
2022-12-29T10:38:59.552Z,33
2022-12-29T10:40:07.633Z,35
2022-12-29T10:41:22.845Z,35
2022-12-29T10:42:32.972Z,29
2022-12-29T10:43:40.202Z,38
2022-12-29T10:44:50.441Z,32
2022-12-29T10:46:00.283Z,32
2022-12-29T10:47:09.184Z,29
2022-12-29T10:48:18.948Z,34
2022-12-29T10:49:31.632Z,38
2022-12-29T10:50:39.099Z,38
2022-12-29T10:51:47.157Z,37
2022-12-29T10:52:55.056Z,52
2022-12-29T10:54:03.483Z,64
2022-12-29T10:55:10.893Z,50
2022-12-29T10:56:17.831Z,61
2022-12-29T10:57:35.518Z,50
2022-12-29T10:58:49.523Z,61
2022-12-29T10:59:53.883Z,57
2022-12-29T11:01:03.130Z,54
2022-12-29T11:02:10.480Z,50
2022-12-29T11:03:22.569Z,49
2022-12-29T11:04:40.195Z,50
2022-12-29T11:05:55.049Z,51
2022-12-29T11:07:11.955Z,58
2022-12-29T11:08:16.338Z,64
2022-12-29T11:09:41.863Z,59
2022-12-29T11:10:38.226Z,68
2022-12-29T11:11:46.297Z,67
2022-12-29T11:12:54.351Z,59
2022-12-29T11:14:06.945Z,72
2022-12-29T11:15:22.788Z,69
2022-12-29T11:16:30.516Z,75
2022-12-29T11:17:37.717Z,77
2022-12-29T11:18:51.773Z,79
2022-12-29T11:19:59.052Z,67
2022-12-29T11:21:07.046Z,77
2022-12-29T11:22:25.832Z,81
2022-12-29T11:23:34.100Z,77
2022-12-29T11:24:41.253Z,81
2022-12-29T11:25:49.453Z,76
2022-12-29T11:27:06.688Z,82
2022-12-29T11:28:13.982Z,79
2022-12-29T11:29:21.245Z,75
2022-12-29T11:30:28.101Z,81
2022-12-29T11:31:35.434Z,79
2022-12-29T11:32:47.843Z,87
2022-12-29T11:33:55.322Z,84
2022-12-29T11:35:02.396Z,88
2022-12-29T11:36:09.966Z,91
2022-12-29T11:37:19.982Z,102
2022-12-29T11:38:35.211Z,90
2022-12-29T11:39:43.248Z,89
2022-12-29T11:41:00.721Z,98
2022-12-29T11:42:09.288Z,87
2022-12-29T11:43:16.451Z,99
2022-12-29T11:44:29.808Z,94
2022-12-29T11:45:36.925Z,101
2022-12-29T11:46:43.961Z,101
2022-12-29T11:47:51.110Z,96
2022-12-29T11:48:58.256Z,95
2022-12-29T11:50:05.632Z,98
2022-12-29T11:51:13.116Z,107
2022-12-29T11:52:29.355Z,95
2022-12-29T11:53:37.349Z,104
2022-12-29T11:54:45.439Z,103
2022-12-29T11:55:52.693Z,100
2022-12-29T11:57:03.076Z,115
2022-12-29T11:58:16.533Z,106
2022-12-29T11:59:23.756Z,99
2022-12-29T12:00:34.884Z,108
2022-12-29T12:01:42.337Z,105
2022-12-29T12:02:49.920Z,100
2022-12-29T12:04:05.881Z,99
2022-12-29T12:05:13.002Z,94
2022-12-29T12:06:23.605Z,96
2022-12-29T12:07:30.788Z,94
2022-12-29T12:08:43.946Z,101
2022-12-29T12:09:54.133Z,96
2022-12-29T12:11:04.590Z,100
2022-12-29T12:12:14.555Z,94
2022-12-29T12:13:29.600Z,89
2022-12-29T12:14:36.464Z,100
2022-12-29T12:15:47.589Z,98
2022-12-29T12:16:54.937Z,93
2022-12-29T12:18:05.379Z,88
2022-12-29T12:19:22.742Z,98
2022-12-29T12:20:33.677Z,101
2022-12-29T12:21:45.271Z,95
2022-12-29T12:22:48.345Z,92
2022-12-29T12:24:03.656Z,102
2022-12-29T12:25:21.254Z,96
2022-12-29T12:26:29.197Z,93
2022-12-29T12:27:39.159Z,99
2022-12-29T12:28:46.193Z,99
2022-12-29T12:29:58.532Z,91
2022-12-29T12:31:16.145Z,89
2022-12-29T12:32:26.280Z,94
2022-12-29T12:33:44.493Z,93
2022-12-29T12:34:52.453Z,91
2022-12-29T12:35:59.652Z,101
2022-12-29T12:37:17.983Z,90
2022-12-29T12:38:35.534Z,114
2022-12-29T12:39:46.136Z,92
2022-12-29T12:41:01.467Z,104
2022-12-29T12:42:13.833Z,93
2022-12-29T12:43:26.076Z,118
2022-12-29T12:44:33.844Z,104
2022-12-29T12:45:47.550Z,95
2022-12-29T12:46:59.984Z,103
2022-12-29T12:48:17.269Z,107
2022-12-29T12:49:29.920Z,97
2022-12-29T12:50:47.246Z,106
2022-12-29T12:52:05.372Z,90
2022-12-29T12:53:21.820Z,110
2022-12-29T12:54:39.325Z,89
2022-12-29T12:55:54.573Z,93
2022-12-29T12:57:06.696Z,95
2022-12-29T12:58:24.569Z,97
2022-12-29T12:59:38.057Z,90
2022-12-29T13:00:50.335Z,102
2022-12-29T13:02:03.483Z,105
2022-12-29T13:03:21.750Z,99
2022-12-29T13:04:28.702Z,102
2022-12-29T13:05:43.754Z,103
2022-12-29T13:06:58.956Z,114
2022-12-29T13:08:16.467Z,103
2022-12-29T13:09:33.973Z,101
2022-12-29T13:10:52.947Z,101
2022-12-29T13:11:59.059Z,99
2022-12-29T13:13:11.340Z,102
2022-12-29T13:14:28.443Z,101
2022-12-29T13:15:45.780Z,100
2022-12-29T13:17:03.436Z,95
2022-12-29T13:18:14.136Z,110
2022-12-29T13:19:29.833Z,115
2022-12-29T13:20:42.418Z,107
2022-12-29T13:21:58.873Z,104
2022-12-29T13:23:07.247Z,109
2022-12-29T13:24:19.405Z,106
2022-12-29T13:25:31.515Z,115
2022-12-29T13:26:39.453Z,110
2022-12-29T13:27:49.110Z,111
2022-12-29T13:28:56.415Z,115
2022-12-29T13:30:09.160Z,107
2022-12-29T13:31:24.443Z,115
2022-12-29T13:32:41.731Z,102
2022-12-29T13:33:56.952Z,118
2022-12-29T13:35:15.122Z,115
2022-12-29T13:36:28.550Z,110
2022-12-29T13:37:39.792Z,103
2022-12-29T13:38:49.484Z,107
2022-12-29T13:39:56.644Z,117
2022-12-29T13:41:03.784Z,109
2022-12-29T13:42:10.818Z,111
2022-12-29T13:43:18.184Z,108
2022-12-29T13:44:25.132Z,108
2022-12-29T13:45:32.263Z,110
2022-12-29T13:46:39.388Z,110
2022-12-29T13:47:46.565Z,106
2022-12-29T13:49:01.977Z,111
2022-12-29T13:50:11.406Z,104
2022-12-29T13:51:21.450Z,105
2022-12-29T13:52:25.859Z,105
2022-12-29T13:53:41.068Z,104
2022-12-29T13:54:58.254Z,111
2022-12-29T13:56:05.164Z,100
2022-12-29T13:57:12.215Z,96
2022-12-29T13:58:24.391Z,107
2022-12-29T13:59:43.056Z,106
2022-12-29T14:00:56.108Z,105
2022-12-29T14:02:03.293Z,104
2022-12-29T14:03:18.319Z,110
2022-12-29T14:04:33.125Z,117
2022-12-29T14:05:40.427Z,107
2022-12-29T14:06:47.425Z,110
2022-12-29T14:08:04.937Z,117
2022-12-29T14:09:12.114Z,105
2022-12-29T14:10:29.492Z,113
2022-12-29T14:11:42.317Z,110
2022-12-29T14:12:49.497Z,111
2022-12-29T14:13:56.726Z,117
2022-12-29T14:15:03.954Z,114
2022-12-29T14:16:13.949Z,113
2022-12-29T14:17:31.629Z,119
2022-12-29T14:18:38.849Z,120
2022-12-29T14:19:46.017Z,111
2022-12-29T14:20:53.038Z,112
2022-12-29T14:22:03.793Z,115
2022-12-29T14:23:10.812Z,114
2022-12-29T14:24:18.101Z,123
2022-12-29T14:25:30.175Z,126
2022-12-29T14:26:47.479Z,117
2022-12-29T14:27:54.665Z,119
2022-12-29T14:29:05.006Z,113
2022-12-29T14:30:19.376Z,126
2022-12-29T14:31:36.824Z,126
2022-12-29T14:32:43.989Z,131
2022-12-29T14:34:01.363Z,128
2022-12-29T14:35:11.334Z,132
2022-12-29T14:36:28.714Z,134
2022-12-29T14:37:38.865Z,139
2022-12-29T14:38:46.157Z,137
2022-12-29T14:39:53.189Z,129
2022-12-29T14:41:13.013Z,136
2022-12-29T14:42:23.088Z,132
2022-12-29T14:43:30.175Z,134
2022-12-29T14:44:37.272Z,113
2022-12-29T14:45:54.581Z,126
2022-12-29T14:47:04.388Z,126
2022-12-29T14:48:11.359Z,109
2022-12-29T14:49:26.387Z,116
2022-12-29T14:50:33.640Z,116
2022-12-29T14:51:45.933Z,114
2022-12-29T14:52:58.427Z,117
2022-12-29T14:54:03.064Z,117
2022-12-29T14:55:20.568Z,125
2022-12-29T14:56:33.660Z,122
2022-12-29T14:57:40.861Z,122
2022-12-29T14:58:48.062Z,121
2022-12-29T15:00:00.530Z,126
2022-12-29T15:01:13.006Z,130
2022-12-29T15:02:23.648Z,131
2022-12-29T15:03:30.761Z,133
2022-12-29T15:04:38.801Z,133
2022-12-29T15:05:46.007Z,136
2022-12-29T15:06:55.842Z,118
2022-12-29T15:08:02.779Z,131
2022-12-29T15:09:09.945Z,145
2022-12-29T15:10:17.093Z,126
2022-12-29T15:11:24.328Z,146
2022-12-29T15:12:42.269Z,129
2022-12-29T15:13:54.693Z,140
2022-12-29T15:15:01.790Z,136
2022-12-29T15:16:19.324Z,131
2022-12-29T15:17:29.421Z,132
2022-12-29T15:18:36.354Z,128
2022-12-29T15:19:43.487Z,125
2022-12-29T15:20:50.595Z,120
2022-12-29T15:21:57.918Z,117
2022-12-29T15:23:04.809Z,114
2022-12-29T15:24:14.384Z,117
2022-12-29T15:25:21.681Z,116
2022-12-29T15:26:29.040Z,125
2022-12-29T15:27:41.378Z,121
2022-12-29T15:28:48.621Z,121
2022-12-29T15:29:55.770Z,124
2022-12-29T15:31:02.895Z,112
2022-12-29T15:32:09.930Z,124
2022-12-29T15:33:19.652Z,117
2022-12-29T15:34:26.807Z,131
2022-12-29T15:35:33.935Z,132
2022-12-29T15:36:41.049Z,134
2022-12-29T15:37:48.533Z,134
2022-12-29T15:38:55.685Z,131
2022-12-29T15:40:02.816Z,131
2022-12-29T15:41:11.049Z,128
2022-12-29T15:42:25.745Z,125
2022-12-29T15:43:46.840Z,125
2022-12-29T15:45:10.098Z,117
2022-12-29T15:46:07.498Z,118
2022-12-29T15:47:14.591Z,108
2022-12-29T15:48:21.672Z,114
2022-12-29T15:49:32.383Z,111
2022-12-29T15:50:36.017Z,107
2022-12-29T15:51:43.138Z,111
2022-12-29T15:52:51.137Z,112
2022-12-29T15:53:57.929Z,111
2022-12-29T15:55:05.066Z,106
2022-12-29T15:56:12.222Z,105
2022-12-29T15:57:19.298Z,109
2022-12-29T15:58:31.439Z,108
2022-12-29T15:59:38.600Z,112
2022-12-29T16:00:45.777Z,107
2022-12-29T16:01:53.995Z,107
2022-12-29T16:03:01.209Z,105
2022-12-29T16:04:08.168Z,102
2022-12-29T16:05:17.891Z,104
2022-12-29T16:06:22.351Z,107
2022-12-29T16:07:29.524Z,107
2022-12-29T16:08:37.482Z,115
2022-12-29T16:09:44.779Z,113
2022-12-29T16:10:51.780Z,113
2022-12-29T16:11:59.373Z,108
2022-12-29T16:13:09.220Z,109
2022-12-29T16:14:21.375Z,110
2022-12-29T16:15:38.792Z,116
2022-12-29T16:16:45.885Z,106
2022-12-29T16:17:52.932Z,114